Saturday, May 26, 2018, 2:26 AM EDT
Back to Local

KEWR, Newark International Airport

Location: Elizabeth, NJ, United States Lat: 40.683
Local Time: 2:26 AM EDT ( 6:26 GMT) Lon: -74.167
Time Zone: US/Eastern Elev: 16 ft

Show me the last for .
Show Decoded

2018-05-26 01:51 METAR KEWR 260551Z 22007KT 10SM FEW250 23/17 A2983 RMK AO2 SLP102 T02280172
                 10283 20228 58004 =
2018-05-26 00:51 METAR KEWR 260451Z 22008KT 10SM FEW250 24/17 A2984 RMK AO2 SLP105 T02390172
                 403110156 =
2018-05-25 23:51 METAR KEWR 260351Z 22009KT 10SM FEW250 25/16 A2984 RMK AO2 SLP105 T02500161 =
2018-05-25 22:51 METAR KEWR 260251Z 23012KT 10SM FEW250 26/15 A2985 RMK AO2 SLP106 T02610150
                 53004 =
2018-05-25 21:51 METAR KEWR 260151Z 22012KT 10SM FEW250 27/15 A2984 RMK AO2 SLP106 T02670150 =
2018-05-25 20:51 METAR KEWR 260051Z 21013G20KT 10SM FEW250 27/16 A2983 RMK AO2 SLP102 T02720156 =
2018-05-25 19:51 METAR KEWR 252351Z 22014KT 10SM FEW250 28/16 A2983 RMK AO2 SLP101 T02830156
                 10311 20283 55004 =
2018-05-25 18:51 METAR KEWR 252251Z 24018KT 10SM FEW060 SCT250 30/13 A2982 RMK AO2 SLP098
                 T03000128 =
2018-05-25 17:51 METAR KEWR 252151Z 23017G23KT 10SM FEW060 SCT250 31/12 A2983 RMK AO2 PK WND
                 25027/2134 SLP101 T03110117 =
2018-05-25 16:51 METAR KEWR 252051Z 23016G24KT 10SM FEW060 SCT250 31/13 A2985 RMK AO2 SLP106
                 T03060133 58024 =
2018-05-25 15:51 METAR KEWR 251951Z 23019G25KT 10SM FEW060 BKN250 31/13 A2987 RMK AO2 SLP115
                 T03060128 =
2018-05-25 14:51 METAR KEWR 251851Z 22013G21KT 10SM FEW060 BKN250 30/12 A2990 RMK AO2 SLP124
                 T03000122 =
2018-05-25 13:51 METAR KEWR 251751Z 23013G20KT 10SM BKN250 31/11 A2992 RMK AO2 SLP130 T03060106
                 10306 20206 58025 =
2018-05-25 12:51 METAR KEWR 251651Z 24015G21KT 10SM BKN250 30/09 A2994 RMK AO2 SLP138 T03000094 =
2018-05-25 11:51 METAR KEWR 251551Z 24011KT 10SM BKN250 29/11 A2997 RMK AO2 SLP149 T02890111 =
2018-05-25 10:51 METAR KEWR 251451Z 23010KT 10SM FEW250 28/11 A2999 RMK AO2 SLP154 T02780111
                 58019 =
2018-05-25 09:51 METAR KEWR 251351Z 23011G17KT 10SM FEW250 26/12 A3002 RMK AO2 SLP164 T02560122 =
2018-05-25 08:51 METAR KEWR 251251Z 22009KT 10SM FEW250 23/13 A3003 RMK AO2 SLP169 T02280128 =
2018-05-25 07:51 METAR KEWR 251151Z 23007KT 10SM FEW250 21/13 A3005 RMK AO2 SLP174 T02060128
                 10206 20156 58001 =
2018-05-25 06:51 METAR KEWR 251051Z 21005KT 10SM FEW250 18/12 A3006 RMK AO2 SLP177 T01780122 =
2018-05-25 05:51 METAR KEWR 250951Z 21005KT 10SM FEW030 SCT250 17/12 A3006 RMK AO2 SLP178
                 T01670117 =
2018-05-25 04:51 METAR KEWR 250851Z 22005KT 10SM FEW250 17/11 A3005 RMK AO2 SLP175 T01720106
                 56010 =
2018-05-25 03:51 METAR KEWR 250751Z 21006KT 10SM CLR 17/10 A3005 RMK AO2 SLP176 T01670100 =
2018-05-25 02:51 METAR KEWR 250651Z 23010KT 10SM CLR 19/09 A3006 RMK AO2 SLP179 T01890089 =

Support USWX by starting your Amazon purchase here.